Time;durP1;ratioP1;P1;durP2;ratioP2;P2;SDS_P1;SDS_P2;PMS_P1;PMS_P2;Temp;Humidity;BMP_temperature;BMP_pressure;BME280_temperature;BME280_humidity;BME280_pressure;Samples;Min_cycle;Max_cycle;Signal;HPM_P1;HPM_P2
2022/01/18 00:01:53;;;;;;;96.88;11.25;;;;;;;;;;5023722;28;20072;-62
2022/01/18 00:04:19;;;;;;;86.03;8.73;;;;;;;;;;5013995;28;20037;-61
2022/01/18 00:06:49;;;;;;;94.72;9.27;;;;;;;;;;5010845;28;20046;-61
2022/01/18 00:09:19;;;;;;;97.63;8.93;;;;;;;;;;5014540;28;20085;-61
2022/01/18 00:11:51;;;;;;;81.65;8.63;;;;;;;;;;5010727;28;20085;-62
2022/01/18 00:14:39;;;;;;;83.53;9.27;;;;;;;;;;5024791;28;20046;-62
2022/01/18 00:17:17;;;;;;;79.40;9.43;;;;;;;;;;4989672;28;20057;-62
2022/01/18 00:19:52;;;;;;;88.82;9.02;;;;;;;;;;4991950;28;20034;-61
2022/01/18 00:22:19;;;;;;;98.78;9.43;;;;;;;;;;4994823;28;20042;-62
2022/01/18 00:24:45;;;;;;;87.78;8.68;;;;;;;;;;4992043;28;20062;-63
2022/01/18 00:27:14;;;;;;;94.32;8.23;;;;;;;;;;5023663;28;20082;-62
2022/01/18 00:29:56;;;;;;;89.05;9.32;;;;;;;;;;4993589;28;20050;-61
2022/01/18 00:35:06;;;;;;;92.32;9.40;;;;;;;;;;5024749;28;20113;-61
2022/01/18 00:37:36;;;;;;;99.93;8.60;;;;;;;;;;5027568;28;20038;-61
2022/01/18 00:40:03;;;;;;;80.32;7.75;;;;;;;;;;4992341;28;20057;-62
2022/01/18 00:42:30;;;;;;;84.07;8.57;;;;;;;;;;4993060;28;20037;-62
2022/01/18 00:44:56;;;;;;;87.88;8.38;;;;;;;;;;4994669;28;20046;-61
2022/01/18 00:47:22;;;;;;;97.32;8.95;;;;;;;;;;5025893;28;20049;-62
2022/01/18 00:49:56;;;;;;;106.65;9.15;;;;;;;;;;4991006;28;20053;-61
2022/01/18 00:52:22;;;;;;;96.05;8.75;;;;;;;;;;5022874;28;20065;-61
2022/01/18 00:54:48;;;;;;;78.95;6.90;;;;;;;;;;5007420;28;20097;-61
2022/01/18 00:57:14;;;;;;;95.45;8.18;;;;;;;;;;4993145;28;20034;-61
2022/01/18 00:59:41;;;;;;;94.75;8.02;;;;;;;;;;4991628;28;20046;-62
2022/01/18 01:02:08;;;;;;;86.32;7.72;;;;;;;;;;4994921;28;20307;-62
2022/01/18 01:04:39;;;;;;;91.57;8.10;;;;;;;;;;4995351;28;20093;-61
2022/01/18 01:07:05;;;;;;;98.57;9.10;;;;;;;;;;4991689;28;20046;-60
2022/01/18 01:09:33;;;;;;;95.15;8.32;;;;;;;;;;5024667;28;20046;-60
2022/01/18 01:11:59;;;;;;;104.75;9.68;;;;;;;;;;4993887;28;20054;-60
2022/01/18 01:14:27;;;;;;;99.82;8.65;;;;;;;;;;5013469;28;20046;-60
2022/01/18 01:17:43;;;;;;;88.65;7.85;;;;;;;;;;5013466;28;20571;-60
2022/01/18 01:32:09;;;;;;;94.60;7.95;;;;;;;;;;5004821;28;20134;-60
2022/01/18 01:36:26;;;;;;;100.38;8.20;;;;;;;;;;5027355;28;20068;-61
2022/01/18 01:41:48;;;;;;;92.78;7.65;;;;;;;;;;5027699;28;20053;-62
2022/01/18 01:46:41;;;;;;;99.68;10.18;;;;;;;;;;5026247;28;20068;-61
2022/01/18 01:49:12;;;;;;;85.82;7.90;;;;;;;;;;4979974;28;20235;-61
2022/01/18 01:51:38;;;;;;;84.07;8.50;;;;;;;;;;5014072;28;20076;-60
2022/01/18 01:54:06;;;;;;;86.57;8.35;;;;;;;;;;5010520;28;20100;-62
2022/01/18 01:56:33;;;;;;;76.45;7.38;;;;;;;;;;5011398;28;20034;-61
2022/01/18 01:59:00;;;;;;;76.28;7.95;;;;;;;;;;4978438;28;20092;-61
2022/01/18 02:01:26;;;;;;;81.70;7.45;;;;;;;;;;5023230;28;20472;-61
2022/01/18 02:03:52;;;;;;;88.43;7.65;;;;;;;;;;4996655;28;20038;-61
2022/01/18 02:06:18;;;;;;;86.18;8.25;;;;;;;;;;4994318;28;20037;-62
2022/01/18 02:08:45;;;;;;;82.07;6.40;;;;;;;;;;4995308;28;20064;-60
2022/01/18 02:11:11;;;;;;;77.10;7.28;;;;;;;;;;4978849;28;20084;-60
2022/01/18 02:13:38;;;;;;;77.57;7.60;;;;;;;;;;5012366;28;20099;-61
2022/01/18 02:21:46;;;;;;;88.97;6.38;;;;;;;;;;5025172;28;20492;-61
2022/01/18 02:24:06;;;;;;;78.10;7.38;;;;;;;;;;5007612;28;20368;-61
2022/01/18 02:26:32;;;;;;;75.95;6.95;;;;;;;;;;4997002;28;20037;-61
2022/01/18 02:29:05;;;;;;;75.40;6.07;;;;;;;;;;4992876;28;20060;-62
2022/01/18 02:31:32;;;;;;;75.47;6.60;;;;;;;;;;5025045;28;20038;-62
2022/01/18 02:34:02;;;;;;;77.13;6.40;;;;;;;;;;4990921;28;20095;-62
2022/01/18 02:36:28;;;;;;;72.35;6.65;;;;;;;;;;5032635;28;20033;-61
2022/01/18 02:38:54;;;;;;;82.50;6.47;;;;;;;;;;5009010;28;20117;-63
2022/01/18 02:41:25;;;;;;;72.82;6.57;;;;;;;;;;4996676;28;20088;-63
2022/01/18 02:43:55;;;;;;;59.63;6.30;;;;;;;;;;5013464;28;20070;-61
2022/01/18 02:46:21;;;;;;;65.55;5.85;;;;;;;;;;4991222;28;20050;-61
2022/01/18 02:48:48;;;;;;;59.17;6.20;;;;;;;;;;4994282;28;20502;-61
2022/01/18 02:51:14;;;;;;;75.07;6.72;;;;;;;;;;5008592;28;20408;-61
2022/01/18 02:53:55;;;;;;;71.18;5.80;;;;;;;;;;5010734;28;20046;-61
2022/01/18 02:56:23;;;;;;;62.45;6.53;;;;;;;;;;5007542;28;20654;-62
2022/01/18 02:58:49;;;;;;;81.05;5.95;;;;;;;;;;4975258;28;20064;-62
2022/01/18 03:04:00;;;;;;;65.10;5.38;;;;;;;;;;5021845;28;20467;-62
2022/01/18 03:06:26;;;;;;;53.95;5.10;;;;;;;;;;4992890;28;20116;-63
2022/01/18 03:08:52;;;;;;;59.65;5.38;;;;;;;;;;4995805;28;20045;-61
2022/01/18 03:11:18;;;;;;;56.35;4.78;;;;;;;;;;4993717;28;20046;-61
2022/01/18 03:13:44;;;;;;;45.92;4.50;;;;;;;;;;4981372;28;20054;-62
2022/01/18 03:16:10;;;;;;;44.25;4.88;;;;;;;;;;5005751;28;20046;-63
2022/01/18 03:18:36;;;;;;;48.15;4.93;;;;;;;;;;4991633;28;20531;-63
2022/01/18 03:21:03;;;;;;;38.35;3.80;;;;;;;;;;5010770;28;20048;-63
2022/01/18 03:23:29;;;;;;;33.03;3.83;;;;;;;;;;4991929;28;20057;-62
2022/01/18 03:26:01;;;;;;;33.70;4.10;;;;;;;;;;4973643;28;20081;-63
2022/01/18 03:28:27;;;;;;;30.98;3.47;;;;;;;;;;5017330;28;20461;-63
2022/01/18 03:30:54;;;;;;;38.90;4.50;;;;;;;;;;4993670;28;20080;-62
2022/01/18 03:33:23;;;;;;;37.85;4.00;;;;;;;;;;4996829;28;20049;-61
2022/01/18 03:35:50;;;;;;;45.45;3.47;;;;;;;;;;5025805;28;20105;-61
2022/01/18 03:38:18;;;;;;;40.28;4.10;;;;;;;;;;5015140;28;20033;-61
2022/01/18 03:40:44;;;;;;;33.67;4.00;;;;;;;;;;4998341;28;20038;-63
2022/01/18 03:43:12;;;;;;;32.95;2.88;;;;;;;;;;5010573;28;20168;-63
2022/01/18 03:45:42;;;;;;;32.67;3.30;;;;;;;;;;5028267;28;20159;-63
2022/01/18 03:48:13;;;;;;;29.60;2.50;;;;;;;;;;5011079;28;20073;-63
2022/01/18 03:50:39;;;;;;;28.60;3.00;;;;;;;;;;4995165;28;20038;-63
2022/01/18 03:53:05;;;;;;;32.78;3.53;;;;;;;;;;5001481;28;20061;-62
2022/01/18 03:55:31;;;;;;;31.77;2.70;;;;;;;;;;4994682;28;20045;-63
2022/01/18 03:57:57;;;;;;;25.70;3.42;;;;;;;;;;5013272;28;20273;-63
2022/01/18 04:00:25;;;;;;;32.92;3.28;;;;;;;;;;5013548;28;20400;-63
2022/01/18 04:02:52;;;;;;;26.88;2.65;;;;;;;;;;5023544;28;20679;-62
2022/01/18 04:05:19;;;;;;;31.13;2.90;;;;;;;;;;5014687;28;20058;-61
2022/01/18 04:07:45;;;;;;;27.25;2.30;;;;;;;;;;4997838;28;20180;-61
2022/01/18 04:10:11;;;;;;;24.63;2.78;;;;;;;;;;5010418;28;20072;-61
2022/01/18 04:12:39;;;;;;;25.88;2.53;;;;;;;;;;4982293;28;20057;-61
2022/01/18 04:15:09;;;;;;;28.65;2.42;;;;;;;;;;5028697;28;20181;-62
2022/01/18 04:26:02;;;;;;;29.98;2.58;;;;;;;;;;5031251;28;20145;-61
2022/01/18 04:28:43;;;;;;;24.80;2.80;;;;;;;;;;5014910;28;20128;-61
2022/01/18 04:31:10;;;;;;;23.05;2.17;;;;;;;;;;5015019;28;20045;-61
2022/01/18 04:33:37;;;;;;;19.63;2.00;;;;;;;;;;5021689;28;20527;-61
2022/01/18 04:36:05;;;;;;;22.90;2.28;;;;;;;;;;5040056;28;20038;-62
2022/01/18 04:38:31;;;;;;;21.58;1.95;;;;;;;;;;5013201;28;20038;-61
2022/01/18 04:41:18;;;;;;;24.10;2.05;;;;;;;;;;4976965;28;20554;-62
2022/01/18 04:49:06;;;;;;;22.30;2.15;;;;;;;;;;5010770;28;20112;-62
2022/01/18 04:51:32;;;;;;;15.85;1.60;;;;;;;;;;5025100;28;20038;-62
2022/01/18 04:54:00;;;;;;;17.35;1.40;;;;;;;;;;4993265;28;20135;-61
2022/01/18 04:57:51;;;;;;;18.55;1.48;;;;;;;;;;4994408;28;20143;-61
2022/01/18 04:59:14;;;;;;;21.13;1.52;;;;;;;;;;5017240;28;20554;-62
2022/01/18 05:01:41;;;;;;;20.85;2.03;;;;;;;;;;5021476;28;20060;-62
2022/01/18 05:04:07;;;;;;;19.48;1.77;;;;;;;;;;5012357;28;20065;-62
2022/01/18 05:06:34;;;;;;;17.38;1.70;;;;;;;;;;4994378;28;20124;-61
2022/01/18 05:09:06;;;;;;;20.05;2.13;;;;;;;;;;5012537;28;20073;-61
2022/01/18 05:11:38;;;;;;;24.47;2.73;;;;;;;;;;4996573;28;20033;-62
2022/01/18 05:16:48;;;;;;;20.10;1.65;;;;;;;;;;5015412;28;20483;-62
2022/01/18 05:24:19;;;;;;;20.85;1.45;;;;;;;;;;5017129;28;20041;-62
2022/01/18 05:26:45;;;;;;;21.45;1.52;;;;;;;;;;4996054;28;20072;-61
2022/01/18 05:29:11;;;;;;;15.30;1.10;;;;;;;;;;4994617;28;20046;-61
2022/01/18 05:31:37;;;;;;;14.90;1.10;;;;;;;;;;4996767;28;20037;-61
2022/01/18 05:34:03;;;;;;;17.83;1.20;;;;;;;;;;4992876;28;20049;-61
2022/01/18 05:36:29;;;;;;;16.35;1.52;;;;;;;;;;4991955;28;20053;-62
2022/01/18 05:38:55;;;;;;;13.45;1.17;;;;;;;;;;4979514;28;20045;-62
2022/01/18 05:41:22;;;;;;;15.40;1.25;;;;;;;;;;5029296;28;20414;-61
2022/01/18 05:43:48;;;;;;;19.15;1.52;;;;;;;;;;5011843;28;20416;-61
2022/01/18 05:46:14;;;;;;;16.55;1.35;;;;;;;;;;4995136;28;20081;-62
2022/01/18 05:48:40;;;;;;;16.70;1.25;;;;;;;;;;5006701;28;20049;-62
2022/01/18 05:51:06;;;;;;;12.10;1.30;;;;;;;;;;4991855;28;20048;-61
2022/01/18 05:53:34;;;;;;;13.10;1.00;;;;;;;;;;5011491;28;20454;-61
2022/01/18 05:56:01;;;;;;;16.55;1.25;;;;;;;;;;5008538;28;20049;-62
2022/01/18 05:58:27;;;;;;;15.70;1.08;;;;;;;;;;4980816;28;20414;-62
2022/01/18 06:00:54;;;;;;;14.68;0.90;;;;;;;;;;4993949;28;20046;-62
2022/01/18 06:03:29;;;;;;;11.90;1.23;;;;;;;;;;5010277;28;20312;-61
2022/01/18 06:08:41;;;;;;;10.43;0.63;;;;;;;;;;5011889;28;20041;-61
2022/01/18 06:11:07;;;;;;;7.22;0.40;;;;;;;;;;5016536;28;20033;-61
2022/01/18 06:13:34;;;;;;;6.15;0.35;;;;;;;;;;5011770;28;20053;-61
2022/01/18 06:16:00;;;;;;;7.55;0.65;;;;;;;;;;5010270;28;20149;-61
2022/01/18 06:18:26;;;;;;;9.57;0.40;;;;;;;;;;4992409;28;20073;-61
2022/01/18 06:20:53;;;;;;;9.85;0.55;;;;;;;;;;5009438;28;20125;-61
2022/01/18 06:23:19;;;;;;;7.07;0.30;;;;;;;;;;5015132;28;20038;-62
2022/01/18 06:25:45;;;;;;;6.15;0.40;;;;;;;;;;5024214;28;20510;-62
2022/01/18 06:28:11;;;;;;;6.25;0.52;;;;;;;;;;5013072;28;20120;-62
2022/01/18 06:30:37;;;;;;;7.80;0.50;;;;;;;;;;5015169;28;20117;-62
2022/01/18 06:33:04;;;;;;;8.25;0.90;;;;;;;;;;5011307;28;20507;-61
2022/01/18 06:35:30;;;;;;;12.95;1.10;;;;;;;;;;5017369;28;20049;-60
2022/01/18 06:37:56;;;;;;;13.80;0.88;;;;;;;;;;4981781;28;20056;-61
2022/01/18 06:40:22;;;;;;;12.93;1.25;;;;;;;;;;4977709;28;20061;-62
2022/01/18 06:42:48;;;;;;;20.42;1.30;;;;;;;;;;5010695;28;20034;-62
2022/01/18 06:45:15;;;;;;;18.83;1.52;;;;;;;;;;4990505;28;20121;-62
2022/01/18 06:47:41;;;;;;;19.58;1.40;;;;;;;;;;4996669;28;20491;-62
2022/01/18 06:50:10;;;;;;;16.60;1.45;;;;;;;;;;5008142;28;20053;-62
2022/01/18 06:52:36;;;;;;;14.98;1.20;;;;;;;;;;5000643;28;20550;-62
2022/01/18 06:55:03;;;;;;;22.90;1.40;;;;;;;;;;5008540;28;20476;-62
2022/01/18 06:57:29;;;;;;;18.73;1.55;;;;;;;;;;5007519;28;20049;-62
2022/01/18 06:59:55;;;;;;;23.88;1.30;;;;;;;;;;4995037;28;20626;-61
2022/01/18 07:02:21;;;;;;;19.90;1.90;;;;;;;;;;4994280;28;20037;-62
2022/01/18 07:04:47;;;;;;;20.05;1.50;;;;;;;;;;4978147;28;20049;-62
2022/01/18 07:07:13;;;;;;;15.10;1.35;;;;;;;;;;4983222;28;20124;-62
2022/01/18 07:09:40;;;;;;;17.13;1.40;;;;;;;;;;5014259;28;20125;-62
2022/01/18 07:12:10;;;;;;;18.75;2.03;;;;;;;;;;5014127;28;20026;-62
2022/01/18 07:14:36;;;;;;;18.38;2.10;;;;;;;;;;4979341;28;20050;-61
2022/01/18 07:17:02;;;;;;;14.82;1.20;;;;;;;;;;5016205;28;20034;-61
2022/01/18 07:19:32;;;;;;;19.40;2.00;;;;;;;;;;5029524;28;20541;-60
2022/01/18 07:21:58;;;;;;;19.20;1.45;;;;;;;;;;4980981;28;20041;-60
2022/01/18 07:27:03;;;;;;;17.33;1.23;;;;;;;;;;5027856;28;20050;-61
2022/01/18 07:29:29;;;;;;;23.45;1.98;;;;;;;;;;5016403;28;20073;-61
2022/01/18 07:31:55;;;;;;;18.27;1.92;;;;;;;;;;4993861;28;20052;-61
2022/01/18 07:34:21;;;;;;;18.15;1.70;;;;;;;;;;4978837;28;20318;-61
2022/01/18 07:36:47;;;;;;;23.17;1.88;;;;;;;;;;5013754;28;20048;-62
2022/01/18 07:39:13;;;;;;;19.25;1.83;;;;;;;;;;4995471;28;20046;-62
2022/01/18 07:41:40;;;;;;;19.90;2.40;;;;;;;;;;4995698;28;20073;-62
2022/01/18 07:44:06;;;;;;;19.83;3.00;;;;;;;;;;4997825;28;20108;-62
2022/01/18 07:46:32;;;;;;;24.50;2.97;;;;;;;;;;4999981;28;20049;-60
2022/01/18 07:48:58;;;;;;;21.77;2.97;;;;;;;;;;5021951;28;20511;-62
2022/01/18 07:51:24;;;;;;;27.40;3.50;;;;;;;;;;5031819;28;20064;-61
2022/01/18 07:53:50;;;;;;;23.95;3.17;;;;;;;;;;5031824;28;20135;-61
2022/01/18 07:56:16;;;;;;;24.30;3.38;;;;;;;;;;5019484;28;20045;-62
2022/01/18 07:58:42;;;;;;;24.67;3.80;;;;;;;;;;5027041;28;20073;-62
2022/01/18 08:01:08;;;;;;;27.27;3.80;;;;;;;;;;4994993;28;20490;-62
2022/01/18 08:03:34;;;;;;;26.73;4.25;;;;;;;;;;4998298;28;20057;-61
2022/01/18 08:06:01;;;;;;;19.50;3.17;;;;;;;;;;5029356;28;20038;-62
2022/01/18 08:08:27;;;;;;;28.35;3.83;;;;;;;;;;5013832;28;20084;-61
2022/01/18 08:10:54;;;;;;;18.88;3.20;;;;;;;;;;4997520;28;20057;-62
2022/01/18 08:13:26;;;;;;;26.10;4.05;;;;;;;;;;4993801;28;20089;-62
2022/01/18 08:16:10;;;;;;;18.88;3.22;;;;;;;;;;5011249;28;20511;-60
2022/01/18 08:18:37;;;;;;;23.52;3.55;;;;;;;;;;4993322;28;20038;-62
2022/01/18 08:21:03;;;;;;;18.48;3.45;;;;;;;;;;5011015;28;20046;-62
2022/01/18 08:23:29;;;;;;;21.40;3.35;;;;;;;;;;4992996;28;20113;-62
2022/01/18 08:25:55;;;;;;;26.95;4.18;;;;;;;;;;5011719;28;20065;-62
2022/01/18 08:28:21;;;;;;;19.02;3.47;;;;;;;;;;5009533;28;20099;-63
2022/01/18 08:30:47;;;;;;;23.30;4.35;;;;;;;;;;5026215;28;20530;-63
2022/01/18 08:33:14;;;;;;;16.00;2.97;;;;;;;;;;5010699;28;20527;-62
2022/01/18 08:35:40;;;;;;;18.83;3.42;;;;;;;;;;5012392;28;20108;-62
2022/01/18 08:38:06;;;;;;;15.13;3.38;;;;;;;;;;5010557;28;20030;-62
2022/01/18 08:40:32;;;;;;;15.35;3.33;;;;;;;;;;5014126;28;20038;-62
2022/01/18 08:42:59;;;;;;;14.90;3.65;;;;;;;;;;5009527;28;20034;-61
2022/01/18 08:45:25;;;;;;;18.00;3.45;;;;;;;;;;5011969;28;20046;-61
2022/01/18 08:47:51;;;;;;;14.27;2.45;;;;;;;;;;5010232;28;20040;-62
2022/01/18 08:50:19;;;;;;;13.45;3.20;;;;;;;;;;4991624;28;20061;-62
2022/01/18 08:52:48;;;;;;;13.40;3.08;;;;;;;;;;5010099;28;20041;-62
2022/01/18 08:55:14;;;;;;;16.20;2.97;;;;;;;;;;5040260;28;20059;-61
2022/01/18 08:57:41;;;;;;;17.70;2.83;;;;;;;;;;5011165;28;20484;-62
2022/01/18 09:00:09;;;;;;;12.52;2.85;;;;;;;;;;5030993;28;20045;-62
2022/01/18 09:02:35;;;;;;;18.25;2.85;;;;;;;;;;4998898;28;20037;-63
2022/01/18 09:05:01;;;;;;;12.80;2.42;;;;;;;;;;5010930;28;20034;-62
2022/01/18 09:07:27;;;;;;;16.02;2.58;;;;;;;;;;5009985;28;20402;-62
2022/01/18 09:10:02;;;;;;;13.88;2.58;;;;;;;;;;4991878;28;20042;-62
2022/01/18 09:12:28;;;;;;;15.23;2.95;;;;;;;;;;4989703;28;20045;-63
2022/01/18 09:14:56;;;;;;;16.27;3.03;;;;;;;;;;4990335;28;20104;-63
2022/01/18 09:17:22;;;;;;;13.82;3.00;;;;;;;;;;5008185;28;20471;-62
2022/01/18 09:19:48;;;;;;;18.58;3.30;;;;;;;;;;5008929;28;20046;-62
2022/01/18 09:22:14;;;;;;;15.23;2.42;;;;;;;;;;4992357;28;20480;-63
2022/01/18 09:24:40;;;;;;;16.83;3.65;;;;;;;;;;5007758;28;20524;-62
2022/01/18 09:27:06;;;;;;;19.83;2.92;;;;;;;;;;4994943;28;20108;-62
2022/01/18 09:29:33;;;;;;;13.32;2.47;;;;;;;;;;4991653;28;20045;-62
2022/01/18 09:31:59;;;;;;;14.93;2.53;;;;;;;;;;4991032;28;20096;-63
2022/01/18 09:34:25;;;;;;;18.63;3.08;;;;;;;;;;4991231;28;20114;-63
2022/01/18 09:36:52;;;;;;;15.57;2.30;;;;;;;;;;4991365;28;20541;-62
2022/01/18 09:39:18;;;;;;;16.30;2.65;;;;;;;;;;4991410;28;20077;-63
2022/01/18 09:41:51;;;;;;;13.68;2.17;;;;;;;;;;4991762;28;20050;-62
2022/01/18 09:44:18;;;;;;;13.48;1.98;;;;;;;;;;4975149;28;20525;-62
2022/01/18 09:46:44;;;;;;;10.98;1.95;;;;;;;;;;4992446;28;20045;-62
2022/01/18 09:49:12;;;;;;;15.05;2.63;;;;;;;;;;5008240;28;20165;-61
2022/01/18 09:51:40;;;;;;;15.05;2.35;;;;;;;;;;5007897;28;20038;-61
2022/01/18 09:54:07;;;;;;;16.85;1.92;;;;;;;;;;5018220;28;20042;-62
2022/01/18 09:56:33;;;;;;;17.13;2.95;;;;;;;;;;5008982;28;20068;-62
2022/01/18 09:58:59;;;;;;;20.67;3.25;;;;;;;;;;5009171;28;20041;-62
2022/01/18 10:01:25;;;;;;;19.30;3.55;;;;;;;;;;4990867;28;20045;-62
2022/01/18 10:03:51;;;;;;;15.50;2.95;;;;;;;;;;5008979;28;20396;-61
2022/01/18 10:06:19;;;;;;;15.60;2.90;;;;;;;;;;4991655;28;20406;-62
2022/01/18 10:08:48;;;;;;;16.27;3.00;;;;;;;;;;5008485;28;20049;-61
2022/01/18 10:11:16;;;;;;;18.90;3.10;;;;;;;;;;5023878;28;20511;-61
2022/01/18 10:13:45;;;;;;;19.15;3.17;;;;;;;;;;5006457;28;20058;-61
2022/01/18 10:16:12;;;;;;;18.13;3.10;;;;;;;;;;5007820;28;20137;-61
2022/01/18 10:18:48;;;;;;;18.48;2.90;;;;;;;;;;4990431;28;20774;-61
2022/01/18 10:21:16;;;;;;;20.38;3.20;;;;;;;;;;5008939;28;20535;-61
2022/01/18 10:23:49;;;;;;;16.02;3.13;;;;;;;;;;5008706;28;20033;-61
2022/01/18 10:26:16;;;;;;;14.07;2.85;;;;;;;;;;4990450;28;20042;-62
2022/01/18 10:28:42;;;;;;;17.08;3.03;;;;;;;;;;4991160;28;20042;-62
2022/01/18 10:31:25;;;;;;;13.32;2.25;;;;;;;;;;5023672;28;20567;-61
2022/01/18 10:34:10;;;;;;;15.53;3.00;;;;;;;;;;4990598;28;20128;-61
2022/01/18 10:36:50;;;;;;;13.88;2.58;;;;;;;;;;5023155;28;20514;-61
2022/01/18 10:39:20;;;;;;;18.52;2.90;;;;;;;;;;5008516;28;20088;-62
2022/01/18 10:41:46;;;;;;;15.25;3.10;;;;;;;;;;4991480;28;20040;-62
2022/01/18 10:44:14;;;;;;;20.40;2.53;;;;;;;;;;5007871;28;20053;-61
2022/01/18 10:46:41;;;;;;;14.52;2.17;;;;;;;;;;5009178;28;20149;-62
2022/01/18 10:49:08;;;;;;;11.85;1.90;;;;;;;;;;4990922;28;20524;-62
2022/01/18 10:51:35;;;;;;;14.05;1.65;;;;;;;;;;4991306;28;20427;-62
2022/01/18 10:54:03;;;;;;;14.57;1.80;;;;;;;;;;4989000;28;20570;-61
2022/01/18 10:56:37;;;;;;;11.25;1.70;;;;;;;;;;5008509;28;20579;-62
2022/01/18 10:59:03;;;;;;;9.82;1.25;;;;;;;;;;5008948;28;20042;-62
2022/01/18 11:01:29;;;;;;;14.85;1.40;;;;;;;;;;5008374;28;20121;-62
2022/01/18 11:04:06;;;;;;;12.23;1.02;;;;;;;;;;4990637;28;20053;-62
2022/01/18 11:06:33;;;;;;;11.90;1.17;;;;;;;;;;4990712;28;20045;-61
2022/01/18 11:09:12;;;;;;;15.25;1.30;;;;;;;;;;5008952;28;20108;-62
2022/01/18 11:11:42;;;;;;;17.27;1.17;;;;;;;;;;5007618;28;20129;-62
2022/01/18 11:14:09;;;;;;;9.65;1.00;;;;;;;;;;5008179;28;20046;-62
2022/01/18 11:16:40;;;;;;;15.05;1.48;;;;;;;;;;4990490;28;20457;-62
2022/01/18 11:19:08;;;;;;;10.27;0.95;;;;;;;;;;5008239;28;20113;-62
2022/01/18 11:21:35;;;;;;;13.68;1.65;;;;;;;;;;4991197;28;20080;-62
2022/01/18 11:24:01;;;;;;;12.98;1.83;;;;;;;;;;4990001;28;20045;-63
2022/01/18 11:26:28;;;;;;;14.63;1.48;;;;;;;;;;5007768;28;20099;-62
2022/01/18 11:28:56;;;;;;;13.85;1.27;;;;;;;;;;5008062;28;20042;-62
2022/01/18 11:31:23;;;;;;;13.82;1.67;;;;;;;;;;4990970;28;20049;-63
2022/01/18 11:33:55;;;;;;;14.25;1.70;;;;;;;;;;4990469;28;20052;-62
2022/01/18 11:36:24;;;;;;;15.60;2.00;;;;;;;;;;4973908;28;20045;-61
2022/01/18 11:38:53;;;;;;;14.10;1.48;;;;;;;;;;5008534;28;20387;-62
2022/01/18 11:41:23;;;;;;;13.43;1.80;;;;;;;;;;4990346;28;20042;-62
2022/01/18 11:43:51;;;;;;;14.15;2.13;;;;;;;;;;4973504;28;20076;-62
2022/01/18 11:46:22;;;;;;;13.93;2.67;;;;;;;;;;4974076;28;20046;-62
2022/01/18 11:48:49;;;;;;;18.98;2.75;;;;;;;;;;4990357;28;20114;-61
2022/01/18 11:51:19;;;;;;;18.23;2.65;;;;;;;;;;4990319;28;20133;-62
2022/01/18 11:53:55;;;;;;;12.25;2.33;;;;;;;;;;4993782;28;20054;-62
2022/01/18 11:56:37;;;;;;;21.15;3.03;;;;;;;;;;5025558;28;20377;-62
2022/01/18 11:59:13;;;;;;;18.15;2.85;;;;;;;;;;5025343;28;20431;-62
2022/01/18 12:02:05;;;;;;;15.82;2.45;;;;;;;;;;4993497;28;20081;-62
2022/01/18 12:07:10;;;;;;;16.92;3.38;;;;;;;;;;5026040;28;20125;-62
2022/01/18 12:09:37;;;;;;;21.60;3.58;;;;;;;;;;5007767;28;20507;-62
2022/01/18 12:12:04;;;;;;;19.90;3.42;;;;;;;;;;5010878;28;20041;-62
2022/01/18 12:14:33;;;;;;;16.73;3.45;;;;;;;;;;4993315;28;20120;-62
2022/01/18 12:17:13;;;;;;;19.33;3.35;;;;;;;;;;4993231;28;20045;-62
2022/01/18 12:19:44;;;;;;;20.15;3.90;;;;;;;;;;5025137;28;20041;-61
2022/01/18 12:22:11;;;;;;;20.50;3.88;;;;;;;;;;5010653;28;21264;-63
2022/01/18 12:24:37;;;;;;;18.40;3.83;;;;;;;;;;4993269;28;20057;-63
2022/01/18 12:27:22;;;;;;;21.05;3.65;;;;;;;;;;4993211;28;20046;-62
2022/01/18 12:30:14;;;;;;;19.70;4.03;;;;;;;;;;4992983;28;20455;-62
2022/01/18 12:33:13;;;;;;;14.48;2.42;;;;;;;;;;5025216;28;20046;-62
2022/01/18 12:35:34;;;;;;;19.10;3.63;;;;;;;;;;4988272;28;20041;-62
2022/01/18 12:38:00;;;;;;;13.70;3.70;;;;;;;;;;5009217;28;20038;-62
2022/01/18 12:40:26;;;;;;;16.88;3.67;;;;;;;;;;5010813;28;20547;-62
2022/01/18 12:46:03;;;;;;;14.23;2.53;;;;;;;;;;5025251;28;20054;-62
2022/01/18 12:48:31;;;;;;;15.10;3.60;;;;;;;;;;5009140;28;20096;-63
2022/01/18 12:50:58;;;;;;;14.77;2.97;;;;;;;;;;5008496;28;20042;-62
2022/01/18 12:53:26;;;;;;;16.67;3.25;;;;;;;;;;5010678;28;20046;-63
2022/01/18 12:55:57;;;;;;;18.85;3.47;;;;;;;;;;4992179;28;20053;-63
2022/01/18 12:58:31;;;;;;;17.10;3.28;;;;;;;;;;5011002;28;20496;-62
2022/01/18 13:01:15;;;;;;;15.52;2.83;;;;;;;;;;4993071;28;20037;-63
2022/01/18 13:03:42;;;;;;;20.75;3.65;;;;;;;;;;4992014;28;20042;-62
2022/01/18 13:06:12;;;;;;;17.08;3.38;;;;;;;;;;4992484;28;20573;-62
2022/01/18 13:08:43;;;;;;;13.27;2.80;;;;;;;;;;5022359;28;20052;-62
2022/01/18 13:11:09;;;;;;;11.15;2.17;;;;;;;;;;5010085;28;20080;-62
2022/01/18 13:13:35;;;;;;;16.02;2.83;;;;;;;;;;5008694;28;20053;-62
2022/01/18 13:27:04;;;;;;;13.70;3.30;;;;;;;;;;5025171;28;20519;-61
2022/01/18 13:29:31;;;;;;;15.20;2.78;;;;;;;;;;5011201;28;20120;-61
2022/01/18 13:32:01;;;;;;;16.63;3.03;;;;;;;;;;4982994;28;20073;-62
2022/01/18 13:34:35;;;;;;;15.68;3.30;;;;;;;;;;4994139;28;20042;-62
2022/01/18 13:37:04;;;;;;;15.63;3.40;;;;;;;;;;4992034;28;20041;-61
2022/01/18 13:39:31;;;;;;;14.90;4.10;;;;;;;;;;5027265;28;20051;-61
2022/01/18 13:41:59;;;;;;;13.77;3.75;;;;;;;;;;4991672;28;20046;-61
2022/01/18 13:44:26;;;;;;;12.73;3.15;;;;;;;;;;5009923;28;20069;-61
2022/01/18 13:46:52;;;;;;;15.85;4.03;;;;;;;;;;4991759;28;20045;-61
2022/01/18 13:49:22;;;;;;;17.63;3.85;;;;;;;;;;4975863;28;20029;-62
2022/01/18 13:52:01;;;;;;;16.45;3.83;;;;;;;;;;4991286;28;20115;-62
2022/01/18 13:54:28;;;;;;;16.42;4.50;;;;;;;;;;5008912;28;20068;-61
2022/01/18 13:56:58;;;;;;;16.52;5.25;;;;;;;;;;4991865;28;20046;-62
2022/01/18 13:59:27;;;;;;;17.20;5.03;;;;;;;;;;4991904;28;20046;-62
2022/01/18 14:01:53;;;;;;;18.00;5.57;;;;;;;;;;4991148;28;20042;-61
2022/01/18 14:04:23;;;;;;;12.25;4.28;;;;;;;;;;5024238;28;20064;-60
2022/01/18 14:06:50;;;;;;;17.27;5.15;;;;;;;;;;5023206;28;20067;-61
2022/01/18 14:09:21;;;;;;;17.75;4.95;;;;;;;;;;5009602;28;20092;-62
2022/01/18 14:11:51;;;;;;;18.58;5.18;;;;;;;;;;4992239;28;20042;-61
2022/01/18 14:14:20;;;;;;;18.23;4.63;;;;;;;;;;5009201;28;20080;-62
2022/01/18 14:16:51;;;;;;;15.38;4.63;;;;;;;;;;5007181;28;20041;-61
2022/01/18 14:19:38;;;;;;;20.40;5.07;;;;;;;;;;4991790;28;20048;-61
2022/01/18 14:22:12;;;;;;;21.50;5.50;;;;;;;;;;4990945;28;20491;-61
2022/01/18 14:24:40;;;;;;;21.55;6.07;;;;;;;;;;4991685;28;20523;-61
2022/01/18 14:27:08;;;;;;;20.67;5.85;;;;;;;;;;4991633;28;20034;-61
2022/01/18 14:29:43;;;;;;;15.45;5.10;;;;;;;;;;4991938;28;20087;-62
2022/01/18 14:32:13;;;;;;;24.02;6.07;;;;;;;;;;4990991;28;20252;-61
2022/01/18 14:35:00;;;;;;;18.45;6.05;;;;;;;;;;4991006;28;20041;-61
2022/01/18 14:37:36;;;;;;;18.85;5.57;;;;;;;;;;5008866;28;20045;-63
2022/01/18 14:40:05;;;;;;;20.15;5.75;;;;;;;;;;4990968;28;20084;-62
2022/01/18 14:42:58;;;;;;;15.52;5.07;;;;;;;;;;4990468;28;20443;-62
2022/01/18 14:47:48;;;;;;;25.65;6.32;;;;;;;;;;5023777;28;20096;-63
2022/01/18 14:50:19;;;;;;;21.83;5.78;;;;;;;;;;4990901;28;20033;-62
2022/01/18 14:52:48;;;;;;;21.17;6.35;;;;;;;;;;5008932;28;20045;-62
2022/01/18 14:55:14;;;;;;;22.35;6.10;;;;;;;;;;4990851;28;20038;-62
2022/01/18 14:57:41;;;;;;;24.23;6.88;;;;;;;;;;5008960;28;20045;-63
2022/01/18 15:00:11;;;;;;;21.23;6.57;;;;;;;;;;4974756;28;20034;-63
2022/01/18 15:02:37;;;;;;;23.15;6.32;;;;;;;;;;4974948;28;20100;-61
2022/01/18 15:05:04;;;;;;;19.73;6.97;;;;;;;;;;4991485;28;20073;-61
2022/01/18 15:07:30;;;;;;;20.75;6.30;;;;;;;;;;4974575;28;20081;-61
2022/01/18 15:09:56;;;;;;;22.83;7.15;;;;;;;;;;5008720;28;20046;-62
2022/01/18 15:12:22;;;;;;;20.73;6.97;;;;;;;;;;4991173;28;20069;-61
2022/01/18 15:14:48;;;;;;;22.10;6.70;;;;;;;;;;5008354;28;20483;-62
2022/01/18 15:17:14;;;;;;;22.55;7.70;;;;;;;;;;5008350;28;20038;-63
2022/01/18 15:19:40;;;;;;;20.63;7.53;;;;;;;;;;5008262;28;20439;-63
2022/01/18 15:22:10;;;;;;;25.58;7.95;;;;;;;;;;5021347;28;20474;-63
2022/01/18 15:24:38;;;;;;;26.38;8.13;;;;;;;;;;4990850;28;20050;-61
2022/01/18 15:27:05;;;;;;;26.63;8.10;;;;;;;;;;4976419;28;20124;-61
2022/01/18 15:29:31;;;;;;;26.90;8.20;;;;;;;;;;4994806;28;20052;-63
2022/01/18 15:31:58;;;;;;;23.35;7.57;;;;;;;;;;5012076;28;20129;-62
2022/01/18 15:34:25;;;;;;;28.50;8.45;;;;;;;;;;4994807;28;20038;-61
2022/01/18 15:36:51;;;;;;;30.63;8.73;;;;;;;;;;5012437;28;20065;-61
2022/01/18 15:39:17;;;;;;;28.63;8.77;;;;;;;;;;5012586;28;20136;-62
2022/01/18 15:41:44;;;;;;;30.30;8.90;;;;;;;;;;5026263;28;20381;-62
2022/01/18 15:44:10;;;;;;;29.17;9.15;;;;;;;;;;4978123;28;20103;-62
2022/01/18 15:46:37;;;;;;;33.17;9.48;;;;;;;;;;5011974;28;20053;-63
2022/01/18 15:49:04;;;;;;;36.50;10.57;;;;;;;;;;4995065;28;20068;-62
2022/01/18 15:51:31;;;;;;;32.17;10.30;;;;;;;;;;5012146;28;20037;-63
2022/01/18 15:53:57;;;;;;;30.88;12.45;;;;;;;;;;5011254;28;20128;-62
2022/01/18 15:56:24;;;;;;;32.63;11.63;;;;;;;;;;4994489;28;20042;-62